WAYLND-WX Weather Reports


Display with metric or nautical units.
time (UTC)temp
F
wind
direction
speed
MPH
gust
MPH
rain 1hr
in
rain 24hr
in
rain mn
in
humidity
%
barometer
mb
20260503170111 58 236 21.0 0.0 0.00 0.00 0.00 47 984.9
20260503160119 56 234 19.0 0.0 0.00 0.00 0.00 49 984.4
20260503150115 54 239 15.0 0.0 0.00 0.00 0.00 54 985.4
20260503140119 52 227 18.0 0.0 0.00 0.00 0.00 57 985.3
20260503130114 46 229 12.0 0.0 0.00 0.00 0.00 69 985.7
20260503120120 42 218 9.0 0.0 0.00 0.00 0.00 72 986.0
20260503110114 38 217 9.0 0.0 0.00 0.00 0.00 72 985.1
20260503100115 37 221 7.0 0.0 0.00 0.00 0.00 74 985.1
20260503090111 35 206 6.0 0.0 0.00 0.00 0.00 71 985.2
20260503081541 35 189 7.0 0.0 0.00 0.00 0.00 70 985.7
20260503080107 35 184 6.0 0.0 0.00 0.00 0.00 70 985.1
20260503071541 36 178 7.0 0.0 0.00 0.00 0.00 66 985.9
20260503070110 36 174 6.0 0.0 0.00 0.00 0.00 66 985.9
20260503060122 37 184 6.0 0.0 0.00 0.00 0.00 66 986.9
20260503054542 37 180 6.0 0.0 0.00 0.00 0.00 65 987.3
20260503051541 36 182 5.0 0.0 0.00 0.00 0.00 68 987.6
20260503050110 36 178 5.0 0.0 0.00 0.00 0.00 68 987.6
20260503044541 36 177 4.0 0.0 0.00 0.00 0.00 68 987.8
20260503043101 36 177 4.0 0.0 0.00 0.00 0.00 68 987.2
20260503041542 37 177 4.0 0.0 0.00 0.00 0.00 68 987.2
20260503040113 37 185 4.0 0.0 0.00 0.00 0.00 68 987.2
20260503034541 37 193 4.0 0.0 0.00 0.00 0.00 62 988.5
20260503033102 37 203 4.0 0.0 0.00 0.00 0.00 63 988.6
20260503031541 38 208 5.0 0.0 0.00 0.00 0.00 63 988.6
20260503030112 39 209 5.0 0.0 0.00 0.00 0.00 63 988.6
20260503024541 39 211 5.0 0.0 0.00 0.00 0.00 59 989.4
20260503023101 39 208 4.0 0.0 0.00 0.00 0.00 66 989.0
20260503021541 39 217 4.0 0.0 0.00 0.00 0.00 66 989.0
20260503020110 39 225 4.0 0.0 0.00 0.00 0.00 66 989.0
20260503014541 40 236 5.0 0.0 0.00 0.00 0.00 60 988.6
20260503013059 40 242 5.0 0.0 0.00 0.00 0.00 60 988.6
20260503011541 41 239 5.0 0.0 0.00 0.00 0.00 60 988.6
20260503010109 41 242 5.0 0.0 0.00 0.00 0.00 60 988.6
20260503004541 42 248 5.0 0.0 0.00 0.00 0.00 46 989.3
20260503003055 43 248 4.0 0.0 0.00 0.00 0.00 46 989.5
20260503001541 44 258 4.0 0.0 0.00 0.00 0.00 46 989.5
20260503000111 45 273 4.0 0.0 0.00 0.00 0.00 46 989.5
20260502234542 46 290 5.0 0.0 0.00 0.00 0.00 39 989.4
20260502233054 46 286 6.0 0.0 0.00 0.00 0.00 40 989.4
20260502231542 46 286 7.0 0.0 0.00 0.00 0.00 40 989.4
20260502230109 47 287 8.0 0.0 0.00 0.00 0.00 40 989.4
20260502224542 47 285 9.0 0.0 0.00 0.00 0.00 39 989.7
20260502223100 47 283 10.0 0.0 0.00 0.00 0.00 38 990.6
20260502221542 47 282 11.0 0.0 0.00 0.00 0.00 38 990.5
20260502220109 47 281 11.0 0.0 0.00 0.00 0.00 38 990.5
20260502214542 47 283 11.0 0.0 0.00 0.00 0.00 41 990.6
20260502213100 47 281 11.0 0.0 0.00 0.00 0.00 42 990.3
20260502211542 47 279 11.0 0.0 0.00 0.00 0.00 42 990.3
20260502210111 47 279 11.0 0.0 0.00 0.00 0.00 42 990.3
20260502204542 47 277 11.0 0.0 0.00 0.00 0.00 39 990.7
20260502203100 47 275 11.0 0.0 0.00 0.00 0.00 40 991.2
20260502201542 47 275 11.0 0.0 0.00 0.00 0.00 40 991.1
20260502200108 47 277 11.0 0.0 0.00 0.00 0.00 40 991.1
20260502194542 47 278 11.0 0.0 0.00 0.00 0.00 34 991.3
20260502193055 47 278 12.0 0.0 0.00 0.00 0.00 34 991.3
20260502191542 48 281 12.0 0.0 0.00 0.00 0.00 34 991.3
20260502190109 48 281 12.0 0.0 0.00 0.00 0.00 34 991.3
20260502184542 47 281 12.0 0.0 0.00 0.00 0.00 41 991.2
20260502183101 47 284 12.0 0.0 0.00 0.00 0.00 44 991.3
20260502181541 47 283 12.0 0.0 0.00 0.00 0.00 44 991.3
20260502180113 46 284 12.0 0.0 0.00 0.00 0.00 44 991.3